createdAt,value
2018-04-26T00:01:14.865Z,94850.39
2018-04-26T00:04:18.136Z,94859.42
2018-04-26T00:07:21.397Z,94859.53
2018-04-26T00:10:24.696Z,94850.84
2018-04-26T00:13:27.992Z,94857.86
2018-04-26T00:16:31.242Z,94855.14
2018-04-26T00:19:35.274Z,94861.46
2018-04-26T00:22:38.554Z,94864.16
2018-04-26T00:25:41.884Z,94871.71
2018-04-26T00:28:45.183Z,94861.77
2018-04-26T00:31:48.452Z,94851.12
2018-04-26T00:34:52.526Z,94852.71
2018-04-26T00:37:56.837Z,94846.92
2018-04-26T00:41:00.087Z,94848.54
2018-04-26T00:44:03.354Z,94857.83
2018-04-26T00:47:06.681Z,94848.61
2018-04-26T00:50:10.731Z,94858.39
2018-04-26T00:53:14.006Z,94869.44
2018-04-26T00:56:17.374Z,94873.13
2018-04-26T00:59:21.407Z,94878.89
2018-04-26T01:02:25.517Z,94881.57
2018-04-26T01:05:29.539Z,94868.05
2018-04-26T01:08:32.867Z,94879.50
2018-04-26T01:11:36.110Z,94860.05
2018-04-26T01:14:39.382Z,94860.52
2018-04-26T01:17:42.661Z,94862.48
2018-04-26T01:20:46.034Z,94865.06
2018-04-26T01:23:49.281Z,94875.30
2018-04-26T01:26:52.552Z,94890.55
2018-04-26T01:29:55.835Z,94891.25
2018-04-26T01:32:59.095Z,94865.56
2018-04-26T01:36:02.402Z,94863.34
2018-04-26T01:39:06.439Z,94854.84
2018-04-26T01:42:09.704Z,94844.25
2018-04-26T01:45:13.044Z,94860.75
2018-04-26T01:48:16.303Z,94858.52
2018-04-26T01:51:20.322Z,94861.16
2018-04-26T01:54:24.361Z,94862.83
2018-04-26T01:57:27.639Z,94863.22
2018-04-26T02:00:31.698Z,94855.36
2018-04-26T02:03:34.962Z,94857.62
2018-04-26T02:06:38.293Z,94861.66
2018-04-26T02:09:41.549Z,94858.34
2018-04-26T02:12:45.579Z,94859.61
2018-04-26T02:15:48.848Z,94865.50
2018-04-26T02:18:52.177Z,94870.08
2018-04-26T02:21:55.468Z,94884.85
2018-04-26T02:24:58.737Z,94882.66
2018-04-26T02:28:02.002Z,94886.39
2018-04-26T02:31:05.264Z,94890.17
2018-04-26T02:34:08.530Z,94883.80
2018-04-26T02:37:11.789Z,94884.38
2018-04-26T02:40:15.056Z,94879.95
2018-04-26T02:43:18.367Z,94887.55
2018-04-26T02:46:21.628Z,94890.81
2018-04-26T02:49:24.877Z,94882.33
2018-04-26T02:52:28.137Z,94878.83
2018-04-26T02:55:32.174Z,94887.63
2018-04-26T02:58:35.444Z,94883.25
2018-04-26T03:01:39.469Z,94882.89
2018-04-26T03:04:42.730Z,94878.11
2018-04-26T03:07:45.995Z,94894.13
2018-04-26T03:10:49.472Z,94894.28
2018-04-26T03:13:52.777Z,94881.06
2018-04-26T03:16:56.030Z,94889.77
2018-04-26T03:19:59.352Z,94893.69
2018-04-26T03:23:03.398Z,94896.39
2018-04-26T03:26:06.650Z,94910.88
2018-04-26T03:29:10.683Z,94892.61
2018-04-26T03:32:15.731Z,94907.36
2018-04-26T03:35:19.009Z,94917.90
2018-04-26T03:38:23.074Z,94917.45
2018-04-26T03:41:26.337Z,94933.52
2018-04-26T03:44:29.595Z,94938.61
2018-04-26T03:47:32.852Z,94938.67
2018-04-26T03:50:36.133Z,94938.72
2018-04-26T03:53:39.404Z,94933.02
2018-04-26T03:56:43.240Z,94951.88
2018-04-26T04:00:04.562Z,94954.09
2018-04-26T04:03:25.753Z,94940.91
2018-04-26T04:06:29.149Z,94950.20
2018-04-26T04:09:33.171Z,94948.02
2018-04-26T04:12:37.193Z,94949.19
2018-04-26T04:15:41.657Z,94976.06
2018-04-26T04:18:44.922Z,94985.09
2018-04-26T04:22:12.193Z,94995.84
2018-04-26T04:25:15.558Z,95001.22
2018-04-26T04:28:19.584Z,94998.17
2018-04-26T04:31:24.052Z,94993.41
2018-04-26T04:34:32.895Z,94998.59
2018-04-26T04:37:36.388Z,94995.48
2018-04-26T04:40:39.677Z,94992.78
2018-04-26T04:43:42.922Z,94995.24
2018-04-26T04:46:46.426Z,95003.63
2018-04-26T04:49:50.603Z,95003.70
2018-04-26T04:52:53.863Z,94999.55
2018-04-26T04:55:57.173Z,94995.48
2018-04-26T04:59:00.467Z,95001.44
2018-04-26T05:02:03.825Z,95008.33
2018-04-26T05:05:10.402Z,95021.98
2018-04-26T05:08:23.298Z,95031.64
2018-04-26T05:11:26.688Z,95028.23
2018-04-26T05:14:29.973Z,95013.88
2018-04-26T05:17:34.014Z,95019.94
2018-04-26T05:20:37.273Z,95021.59
2018-04-26T05:23:41.305Z,95019.86
2018-04-26T05:26:45.322Z,95023.86
2018-04-26T05:29:48.599Z,95037.51
2018-04-26T05:32:51.849Z,95057.19
2018-04-26T05:35:55.110Z,95063.77
2018-04-26T05:38:59.154Z,95059.83
2018-04-26T05:42:02.410Z,95078.97
2018-04-26T05:45:06.454Z,95097.84
2018-04-26T05:48:09.714Z,95096.94
2018-04-26T05:51:12.982Z,95096.44
2018-04-26T05:54:16.275Z,95095.01
2018-04-26T05:57:19.517Z,95103.44
2018-04-26T06:00:23.545Z,95112.09
2018-04-26T06:03:26.847Z,95112.69
2018-04-26T06:06:30.842Z,95114.89
2018-04-26T06:09:34.861Z,95117.31
2018-04-26T06:12:38.969Z,95131.89
2018-04-26T06:15:42.996Z,95131.80
2018-04-26T06:18:47.001Z,95145.66
2018-04-26T06:21:51.050Z,95142.92
2018-04-26T06:24:55.416Z,95141.45
2018-04-26T06:27:59.578Z,95152.67
2018-04-26T06:31:03.649Z,95143.16
2018-04-26T06:34:06.869Z,95156.56
2018-04-26T06:37:10.970Z,95161.30
2018-04-26T06:40:14.907Z,95167.84
2018-04-26T06:43:19.114Z,95163.79
2018-04-26T06:46:22.361Z,95165.20
2018-04-26T06:49:25.605Z,95165.50
2018-04-26T06:52:28.909Z,95162.48
2018-04-26T06:55:32.927Z,95160.37
2018-04-26T06:58:36.938Z,95173.72
2018-04-26T07:01:40.950Z,95172.28
2018-04-26T07:04:44.963Z,95171.41
2018-04-26T07:07:48.246Z,95166.94
2018-04-26T07:10:51.513Z,95178.55
2018-04-26T07:13:54.757Z,95174.72
2018-04-26T07:16:58.796Z,95179.38
2018-04-26T07:20:02.047Z,95186.00
2018-04-26T07:23:05.681Z,95189.56
2018-04-26T07:26:09.698Z,95191.80
2018-04-26T07:29:13.790Z,95187.89
2018-04-26T07:35:34.623Z,95186.61
2018-04-26T07:38:37.929Z,95192.19
2018-04-26T07:41:41.960Z,95197.80
2018-04-26T07:44:46.003Z,95211.59
2018-04-26T07:47:50.001Z,95218.92
2018-04-26T07:50:54.070Z,95224.46
2018-04-26T07:53:57.325Z,95229.89
2018-04-26T07:57:00.586Z,95230.00
2018-04-26T08:00:04.606Z,95238.25
2018-04-26T08:03:08.668Z,95230.95
2018-04-26T08:06:12.253Z,95233.11
2018-04-26T08:09:15.735Z,95226.33
2018-04-26T08:12:19.760Z,95236.08
2018-04-26T08:15:23.031Z,95236.52
2018-04-26T08:18:26.329Z,95230.26
2018-04-26T08:21:30.365Z,95238.34
2018-04-26T08:24:34.574Z,95227.24
2018-04-26T08:27:38.670Z,95234.17
2018-04-26T08:30:41.933Z,95234.17
2018-04-26T08:33:45.194Z,95232.50
2018-04-26T08:36:49.252Z,95238.91
2018-04-26T08:39:52.489Z,95237.63
2018-04-26T08:42:57.085Z,95240.06
2018-04-26T08:46:00.339Z,95231.28
2018-04-26T08:49:03.632Z,95236.88
2018-04-26T08:52:06.910Z,95238.84
2018-04-26T08:55:10.936Z,95239.72
2018-04-26T08:58:14.967Z,95239.38
2018-04-26T09:01:18.226Z,95240.64
2018-04-26T09:04:22.272Z,95244.64
2018-04-26T09:07:26.291Z,95250.27
2018-04-26T09:10:29.601Z,95245.73
2018-04-26T09:13:35.490Z,95249.55
2018-04-26T09:16:39.296Z,95251.25
2018-04-26T09:19:42.563Z,95249.63
2018-04-26T09:22:45.814Z,95243.17
2018-04-26T09:25:49.092Z,95243.18
2018-04-26T09:28:52.347Z,95240.97
2018-04-26T09:31:55.604Z,95235.86
2018-04-26T09:34:58.881Z,95238.37
2018-04-26T09:38:02.141Z,95234.48
2018-04-26T09:41:05.401Z,95238.14
2018-04-26T09:44:08.685Z,95247.02
2018-04-26T09:47:11.942Z,95247.34
2018-04-26T09:50:15.199Z,95233.83
2018-04-26T09:53:19.238Z,95241.42
2018-04-26T09:56:22.501Z,95241.27
2018-04-26T09:59:25.922Z,95235.34
2018-04-26T10:02:29.946Z,95242.25
2018-04-26T10:05:38.701Z,95243.02
2018-04-26T10:08:41.975Z,95245.09
2018-04-26T10:11:45.240Z,95233.51
2018-04-26T10:14:49.234Z,95237.05
2018-04-26T10:17:52.504Z,95237.39
2018-04-26T10:20:55.770Z,95241.23
2018-04-26T10:23:59.805Z,95238.23
2018-04-26T10:27:03.149Z,95243.64
2018-04-26T10:30:07.202Z,95251.54
2018-04-26T10:33:10.518Z,95249.30
2018-04-26T10:36:13.896Z,95241.39
2018-04-26T10:39:17.947Z,95242.61
2018-04-26T10:42:21.211Z,95246.01
2018-04-26T10:45:24.465Z,95240.22
2018-04-26T10:48:27.726Z,95232.14
2018-04-26T10:51:30.979Z,95234.67
2018-04-26T10:54:35.001Z,95230.73
2018-04-26T10:57:39.064Z,95231.53
2018-04-26T11:00:42.330Z,95236.46
2018-04-26T11:03:45.612Z,95230.23
2018-04-26T11:06:49.644Z,95243.73
2018-04-26T11:09:52.896Z,95235.45
2018-04-26T11:12:57.172Z,95233.51
2018-04-26T11:16:00.432Z,95237.59
2018-04-26T11:19:03.686Z,95233.25
2018-04-26T11:22:07.032Z,95232.69
2018-04-26T11:25:10.579Z,95227.47
2018-04-26T11:28:13.916Z,95236.30
2018-04-26T11:31:17.169Z,95236.97
2018-04-26T11:34:20.435Z,95229.45
2018-04-26T11:37:24.454Z,95233.44
2018-04-26T11:40:28.495Z,95227.56
2018-04-26T11:43:32.134Z,95234.38
2018-04-26T11:46:35.481Z,95232.27
2018-04-26T11:49:38.678Z,95228.84
2018-04-26T11:52:41.939Z,95227.52
2018-04-26T11:55:45.203Z,95230.73
2018-04-26T11:58:48.474Z,95230.05
2018-04-26T12:01:53.427Z,95228.59
2018-04-26T12:04:56.695Z,95226.95
2018-04-26T12:08:00.717Z,95231.95
2018-04-26T12:11:04.744Z,95224.79
2018-04-26T12:14:08.040Z,95215.03
2018-04-26T12:17:12.083Z,95214.42
2018-04-26T12:20:15.373Z,95219.69
2018-04-26T12:23:18.637Z,95219.64
2018-04-26T12:26:23.011Z,95218.02
2018-04-26T12:29:26.553Z,95219.91
2018-04-26T12:32:29.739Z,95217.03
2018-04-26T12:35:33.055Z,95224.75
2018-04-26T12:38:36.279Z,95223.45
2018-04-26T12:41:39.534Z,95226.23
2018-04-26T12:44:42.785Z,95216.47
2018-04-26T12:47:46.070Z,95214.94
2018-04-26T12:50:49.337Z,95210.78
2018-04-26T12:53:53.370Z,95216.14
2018-04-26T12:56:56.628Z,95212.70
2018-04-26T12:59:59.898Z,95218.45
2018-04-26T13:03:03.388Z,95213.67
2018-04-26T13:06:07.467Z,95219.06
2018-04-26T13:09:12.612Z,95214.03
2018-04-26T13:12:17.918Z,95216.30
2018-04-26T13:15:22.011Z,95213.34
2018-04-26T13:18:25.289Z,95212.38
2018-04-26T13:21:29.995Z,95208.28
2018-04-26T13:24:33.217Z,95207.89
2018-04-26T13:30:47.552Z,95198.55
2018-04-26T13:33:56.018Z,95207.73
2018-04-26T13:36:59.628Z,95205.81
2018-04-26T13:40:02.901Z,95205.91
2018-04-26T13:43:06.936Z,95201.30
2018-04-26T13:46:10.219Z,95202.21
2018-04-26T13:49:14.288Z,95202.27
2018-04-26T13:52:17.554Z,95199.59
2018-04-26T13:55:20.856Z,95199.84
2018-04-26T13:58:24.168Z,95202.02
2018-04-26T14:01:27.433Z,95195.91
2018-04-26T14:04:30.718Z,95196.02
2018-04-26T14:10:49.406Z,95193.48
2018-04-26T14:13:53.011Z,95197.77
2018-04-26T14:16:57.044Z,95193.50
2018-04-26T14:20:00.309Z,95196.14
2018-04-26T14:23:04.477Z,95185.79
2018-04-26T14:26:07.656Z,95183.16
2018-04-26T14:29:10.915Z,95182.61
2018-04-26T14:32:15.014Z,95191.42
2018-04-26T14:35:18.295Z,95184.30
2018-04-26T14:38:21.588Z,95171.34
2018-04-26T14:41:24.856Z,95173.52
2018-04-26T14:44:28.215Z,95174.66
2018-04-26T14:47:32.255Z,95175.77
2018-04-26T14:50:35.872Z,95172.45
2018-04-26T14:53:39.580Z,95167.86
2018-04-26T14:56:42.845Z,95156.69
2018-04-26T14:59:46.894Z,95155.88
2018-04-26T15:02:50.160Z,95147.25
2018-04-26T15:05:54.656Z,95150.62
2018-04-26T15:08:57.917Z,95153.87
2018-04-26T15:12:01.179Z,95148.17
2018-04-26T15:15:04.446Z,95159.84
2018-04-26T15:18:07.716Z,95156.94
2018-04-26T15:21:10.996Z,95162.39
2018-04-26T15:24:14.307Z,95156.55
2018-04-26T15:27:17.619Z,95151.91
2018-04-26T15:30:20.894Z,95154.73
2018-04-26T15:33:24.200Z,95149.62
2018-04-26T15:36:27.452Z,95142.34
2018-04-26T15:39:30.733Z,95145.32
2018-04-26T15:42:34.041Z,95141.44
2018-04-26T15:45:37.305Z,95138.88
2018-04-26T15:48:40.580Z,95145.35
2018-04-26T15:51:43.973Z,95139.30
2018-04-26T15:59:03.590Z,95147.84
2018-04-26T16:02:32.121Z,95147.21
2018-04-26T16:05:53.400Z,95150.12
2018-04-26T16:09:14.551Z,95150.26
2018-04-26T16:12:56.479Z,95143.52
2018-04-26T16:20:19.055Z,95135.30
2018-04-26T16:23:45.712Z,95142.11
2018-04-26T16:31:10.775Z,95148.69
2018-04-26T16:34:45.562Z,95149.58
2018-04-26T16:38:12.433Z,95141.66
2018-04-26T16:41:15.758Z,95135.19
2018-04-26T16:44:19.081Z,95131.69
2018-04-26T16:47:22.352Z,95132.63
2018-04-26T16:50:25.650Z,95127.16
2018-04-26T16:53:30.070Z,95123.78
2018-04-26T16:56:34.235Z,95124.95
2018-04-26T16:59:37.636Z,95118.13
2018-04-26T17:02:41.716Z,95115.72
2018-04-26T17:05:45.005Z,95126.64
2018-04-26T17:08:48.360Z,95130.39
2018-04-26T17:11:51.702Z,95131.70
2018-04-26T17:14:55.333Z,95131.16
2018-04-26T17:17:58.609Z,95133.54
2018-04-26T17:21:02.695Z,95131.21
2018-04-26T17:24:05.979Z,95132.38
2018-04-26T17:27:09.425Z,95130.66
2018-04-26T17:30:13.494Z,95140.26
2018-04-26T17:33:16.749Z,95144.41
2018-04-26T17:36:20.026Z,95137.08
2018-04-26T17:39:24.111Z,95138.87
2018-04-26T17:42:27.486Z,95138.33
2018-04-26T17:45:30.634Z,95149.56
2018-04-26T17:48:34.686Z,95146.30
2018-04-26T17:51:37.948Z,95148.39
2018-04-26T17:54:41.990Z,95148.30
2018-04-26T17:57:45.257Z,95147.04
2018-04-26T18:00:49.370Z,95147.52
2018-04-26T18:03:53.461Z,95144.00
2018-04-26T18:06:56.738Z,95151.69
2018-04-26T18:10:00.044Z,95149.53
2018-04-26T18:13:03.383Z,95154.88
2018-04-26T18:16:07.884Z,95151.77
2018-04-26T18:19:11.167Z,95156.55
2018-04-26T18:22:14.536Z,95161.58
2018-04-26T18:25:17.820Z,95161.98
2018-04-26T18:28:21.089Z,95159.91
2018-04-26T18:31:24.478Z,95164.84
2018-04-26T18:34:27.769Z,95160.31
2018-04-26T18:37:31.178Z,95170.92
2018-04-26T18:40:34.951Z,95173.59
2018-04-26T18:43:38.153Z,95178.84
2018-04-26T18:46:41.447Z,95188.23
2018-04-26T18:49:44.764Z,95189.28
2018-04-26T18:52:48.061Z,95199.50
2018-04-26T18:55:51.345Z,95206.36
2018-04-26T18:58:54.674Z,95213.44
2018-04-26T19:01:58.110Z,95216.19
2018-04-26T19:05:01.408Z,95218.31
2018-04-26T19:08:04.933Z,95221.45
2018-04-26T19:11:08.206Z,95225.98
2018-04-26T19:14:11.516Z,95235.81
2018-04-26T19:17:15.513Z,95238.72
2018-04-26T19:20:19.598Z,95230.48
2018-04-26T19:23:22.882Z,95227.50
2018-04-26T19:26:26.137Z,95237.34
2018-04-26T19:29:29.457Z,95231.81
2018-04-26T19:32:32.728Z,95237.97
2018-04-26T19:35:36.774Z,95236.33
2018-04-26T19:38:40.034Z,95231.17
2018-04-26T19:41:44.155Z,95231.11
2018-04-26T19:44:48.181Z,95230.41
2018-04-26T19:47:51.549Z,95220.45
2018-04-26T19:50:54.817Z,95225.65
2018-04-26T19:54:03.219Z,95227.44
2018-04-26T19:57:06.676Z,95234.92
2018-04-26T20:00:10.017Z,95234.08
2018-04-26T20:03:13.606Z,95235.69
2018-04-26T20:06:17.728Z,95229.94
2018-04-26T20:09:21.246Z,95233.98
2018-04-26T20:12:24.561Z,95240.28
2018-04-26T20:15:28.602Z,95254.13
2018-04-26T20:18:31.895Z,95253.50
2018-04-26T20:21:35.238Z,95250.28
2018-04-26T20:24:39.493Z,95253.20
2018-04-26T20:27:43.498Z,95261.70
2018-04-26T20:30:47.526Z,95260.73
2018-04-26T20:33:51.568Z,95254.19
2018-04-26T20:36:54.822Z,95260.30
2018-04-26T20:39:58.421Z,95257.33
2018-04-26T20:43:01.696Z,95253.17
2018-04-26T20:46:04.956Z,95249.22
2018-04-26T20:49:08.235Z,95252.93
2018-04-26T20:52:12.236Z,95248.03
2018-04-26T20:55:16.253Z,95252.83
2018-04-26T20:58:19.532Z,95246.77
2018-04-26T21:01:22.787Z,95246.75
2018-04-26T21:04:26.034Z,95252.84
2018-04-26T21:07:29.326Z,95246.41
2018-04-26T21:10:33.567Z,95253.13
2018-04-26T21:13:37.594Z,95250.78
2018-04-26T21:16:40.840Z,95261.70
2018-04-26T21:19:44.135Z,95250.88
2018-04-26T21:22:47.388Z,95248.92
2018-04-26T21:25:50.686Z,95251.95
2018-04-26T21:28:53.969Z,95256.07
2018-04-26T21:31:57.978Z,95247.84
2018-04-26T21:35:01.986Z,95250.29
2018-04-26T21:38:05.247Z,95250.19
2018-04-26T21:41:08.485Z,95249.66
2018-04-26T21:44:12.504Z,95241.17
2018-04-26T21:47:16.506Z,95245.68
2018-04-26T21:50:33.635Z,95251.59
2018-04-26T21:53:43.158Z,95247.04
2018-04-26T21:56:52.012Z,95249.88
2018-04-26T22:00:01.726Z,95248.09
2018-04-26T22:03:04.973Z,95246.14
2018-04-26T22:06:08.222Z,95250.75
2018-04-26T22:09:11.483Z,95245.39
2018-04-26T22:12:14.755Z,95250.39
2018-04-26T22:15:18.041Z,95246.67
2018-04-26T22:18:22.047Z,95236.80
2018-04-26T22:21:25.294Z,95235.72
2018-04-26T22:24:28.533Z,95233.35
2018-04-26T22:27:31.793Z,95238.73
2018-04-26T22:30:35.039Z,95230.33
2018-04-26T22:33:38.286Z,95226.09
2018-04-26T22:36:41.537Z,95227.70
2018-04-26T22:39:45.552Z,95228.06
2018-04-26T22:42:49.574Z,95242.33
2018-04-26T22:45:53.658Z,95231.25
2018-04-26T22:48:56.910Z,95222.94
2018-04-26T22:52:00.162Z,95220.34
2018-04-26T22:55:03.416Z,95217.06
2018-04-26T22:58:06.684Z,95219.53
2018-04-26T23:01:10.703Z,95218.26
2018-04-26T23:04:13.992Z,95213.86
2018-04-26T23:07:18.004Z,95203.05
2018-04-26T23:10:22.020Z,95196.16
2018-04-26T23:13:26.971Z,95204.56
2018-04-26T23:16:30.213Z,95201.89
2018-04-26T23:19:33.458Z,95203.67
2018-04-26T23:22:36.798Z,95201.64
2018-04-26T23:25:40.053Z,95200.78
2018-04-26T23:28:43.314Z,95203.77
2018-04-26T23:31:46.556Z,95199.07
2018-04-26T23:34:49.808Z,95197.70
2018-04-26T23:37:53.058Z,95197.70
2018-04-26T23:40:56.293Z,95192.28
2018-04-26T23:43:59.552Z,95190.66
2018-04-26T23:47:02.802Z,95190.90
2018-04-26T23:50:06.067Z,95190.58
2018-04-26T23:53:10.085Z,95184.36
2018-04-26T23:56:13.348Z,95184.46
2018-04-26T23:59:16.605Z,95177.95
